createdAt,value
2018-04-10T00:00:06.800Z,18.01
2018-04-10T00:01:06.804Z,18.02
2018-04-10T00:02:06.798Z,18.05
2018-04-10T00:03:06.760Z,18.04
2018-04-10T00:04:06.778Z,18.02
2018-04-10T00:05:06.746Z,18.02
2018-04-10T00:06:06.784Z,18.01
2018-04-10T00:07:07.191Z,18.02
2018-04-10T00:08:06.768Z,18.04
2018-04-10T00:09:06.748Z,18.02
2018-04-10T00:10:06.755Z,18.02
2018-04-10T00:11:06.995Z,18.01
2018-04-10T00:12:07.372Z,18.02
2018-04-10T00:13:06.778Z,18.01
2018-04-10T00:14:06.785Z,18.02
2018-04-10T00:15:06.914Z,18.04
2018-04-10T00:16:06.768Z,18.02
2018-04-10T00:17:06.825Z,18.01
2018-04-10T00:18:06.877Z,18.02
2018-04-10T00:19:06.864Z,18.01
2018-04-10T00:20:06.777Z,18.01
2018-04-10T00:21:06.775Z,18.01
2018-04-10T00:22:06.895Z,18
2018-04-10T00:23:06.800Z,18.01
2018-04-10T00:24:06.777Z,18.01
2018-04-10T00:25:06.772Z,18.01
2018-04-10T00:26:06.756Z,18.01
2018-04-10T00:27:06.831Z,18.01
2018-04-10T00:28:06.791Z,17.98
2018-04-10T00:29:06.751Z,18
2018-04-10T00:30:06.743Z,18.02
2018-04-10T00:31:06.796Z,18
2018-04-10T00:32:06.888Z,18.01
2018-04-10T00:33:06.747Z,18.02
2018-04-10T00:34:06.778Z,18.01
2018-04-10T00:35:06.766Z,18
2018-04-10T00:36:06.741Z,18.01
2018-04-10T00:37:06.787Z,18
2018-04-10T00:38:06.811Z,18
2018-04-10T00:39:06.748Z,18
2018-04-10T00:40:06.734Z,18
2018-04-10T00:41:06.779Z,17.98
2018-04-10T00:42:06.782Z,17.98
2018-04-10T00:43:06.807Z,18
2018-04-10T00:44:06.760Z,18
2018-04-10T00:45:06.777Z,18
2018-04-10T00:46:06.799Z,18
2018-04-10T00:47:06.913Z,18
2018-04-10T00:48:06.716Z,18.01
2018-04-10T00:49:06.732Z,17.98
2018-04-10T00:50:06.902Z,17.97
2018-04-10T00:51:06.759Z,17.97
2018-04-10T00:52:06.821Z,17.98
2018-04-10T00:53:06.765Z,17.98
2018-04-10T00:54:06.797Z,18
2018-04-10T00:55:06.790Z,17.97
2018-04-10T00:56:06.841Z,17.98
2018-04-10T00:57:06.761Z,17.97
2018-04-10T00:58:06.769Z,17.95
2018-04-10T00:59:06.767Z,17.97
2018-04-10T01:00:06.767Z,17.97
2018-04-10T01:01:06.805Z,17.95
2018-04-10T01:02:06.790Z,18
2018-04-10T01:03:06.783Z,17.97
2018-04-10T01:04:06.777Z,17.98
2018-04-10T01:05:06.579Z,17.95
2018-04-10T01:06:06.848Z,17.98
2018-04-10T01:07:06.793Z,17.97
2018-04-10T01:08:06.805Z,18
2018-04-10T01:09:06.884Z,18
2018-04-10T01:10:06.854Z,17.97
2018-04-10T01:11:06.820Z,17.97
2018-04-10T01:12:06.984Z,17.98
2018-04-10T01:13:06.890Z,17.95
2018-04-10T01:14:06.908Z,17.98
2018-04-10T01:15:06.741Z,17.95
2018-04-10T01:16:06.770Z,17.97
2018-04-10T01:17:06.861Z,17.97
2018-04-10T01:18:06.797Z,17.95
2018-04-10T01:19:06.735Z,17.95
2018-04-10T01:20:06.743Z,17.97
2018-04-10T01:21:06.797Z,17.98
2018-04-10T01:22:06.819Z,17.97
2018-04-10T01:23:06.798Z,17.97
2018-04-10T01:24:06.751Z,17.97
2018-04-10T01:25:06.760Z,17.95
2018-04-10T01:26:06.775Z,17.94
2018-04-10T01:27:06.772Z,17.97
2018-04-10T01:28:06.754Z,17.95
2018-04-10T01:29:06.782Z,17.95
2018-04-10T01:30:06.735Z,17.95
2018-04-10T01:31:06.788Z,17.97
2018-04-10T01:32:06.730Z,17.95
2018-04-10T01:33:06.778Z,17.97
2018-04-10T01:34:06.764Z,17.94
2018-04-10T01:35:06.880Z,17.94
2018-04-10T01:36:06.747Z,17.97
2018-04-10T01:37:06.775Z,17.95
2018-04-10T01:38:06.770Z,17.94
2018-04-10T01:39:06.748Z,17.94
2018-04-10T01:40:06.743Z,17.94
2018-04-10T01:41:06.760Z,17.95
2018-04-10T01:42:06.820Z,17.97
2018-04-10T01:43:06.749Z,17.94
2018-04-10T01:44:06.773Z,17.95
2018-04-10T01:45:06.815Z,17.95
2018-04-10T01:46:06.723Z,17.94
2018-04-10T01:47:06.745Z,17.94
2018-04-10T01:48:06.770Z,17.94
2018-04-10T01:49:06.811Z,17.94
2018-04-10T01:50:06.952Z,17.95
2018-04-10T01:51:06.823Z,17.97
2018-04-10T01:52:06.745Z,17.94
2018-04-10T01:53:06.720Z,17.94
2018-04-10T01:54:06.731Z,17.95
2018-04-10T01:55:06.726Z,17.95
2018-04-10T01:56:06.720Z,17.94
2018-04-10T01:57:06.751Z,17.93
2018-04-10T01:58:06.783Z,17.91
2018-04-10T01:59:06.764Z,17.95
2018-04-10T02:00:06.762Z,17.94
2018-04-10T02:01:06.709Z,17.91
2018-04-10T02:02:06.878Z,17.95
2018-04-10T02:03:06.729Z,17.93
2018-04-10T02:04:06.709Z,17.93
2018-04-10T02:05:06.732Z,17.95
2018-04-10T02:06:06.749Z,17.94
2018-04-10T02:07:06.763Z,17.93
2018-04-10T02:08:06.760Z,17.93
2018-04-10T02:09:06.725Z,17.94
2018-04-10T02:10:06.720Z,17.89
2018-04-10T02:11:06.767Z,17.93
2018-04-10T02:12:06.741Z,17.93
2018-04-10T02:13:06.712Z,17.93
2018-04-10T02:14:06.735Z,17.91
2018-04-10T02:15:06.709Z,17.94
2018-04-10T02:16:06.725Z,17.93
2018-04-10T02:17:06.718Z,17.93
2018-04-10T02:18:06.862Z,17.93
2018-04-10T02:19:06.707Z,17.89
2018-04-10T02:20:06.717Z,17.93
2018-04-10T02:21:06.774Z,17.93
2018-04-10T02:22:06.755Z,17.91
2018-04-10T02:23:06.738Z,17.93
2018-04-10T02:24:06.711Z,17.89
2018-04-10T02:25:07.189Z,17.91
2018-04-10T02:26:06.711Z,17.91
2018-04-10T02:27:06.749Z,17.93
2018-04-10T02:28:06.756Z,17.91
2018-04-10T02:29:06.734Z,17.91
2018-04-10T02:30:06.854Z,17.93
2018-04-10T02:31:06.711Z,17.93
2018-04-10T02:32:06.783Z,17.88
2018-04-10T02:33:06.779Z,17.91
2018-04-10T02:34:06.778Z,17.91
2018-04-10T02:35:06.784Z,17.91
2018-04-10T02:36:06.719Z,17.91
2018-04-10T02:37:06.980Z,17.89
2018-04-10T02:38:06.758Z,17.91
2018-04-10T02:39:06.733Z,17.91
2018-04-10T02:40:06.807Z,17.91
2018-04-10T02:41:06.713Z,17.91
2018-04-10T02:42:06.773Z,17.91
2018-04-10T02:43:06.742Z,17.88
2018-04-10T02:44:06.734Z,17.88
2018-04-10T02:45:06.778Z,17.89
2018-04-10T02:46:06.745Z,17.88
2018-04-10T02:47:06.728Z,17.89
2018-04-10T02:48:06.791Z,17.88
2018-04-10T02:49:06.724Z,17.89
2018-04-10T02:50:06.715Z,17.89
2018-04-10T02:51:06.767Z,17.89
2018-04-10T02:52:06.693Z,17.88
2018-04-10T02:53:06.714Z,17.89
2018-04-10T02:54:06.713Z,17.91
2018-04-10T02:55:06.717Z,17.88
2018-04-10T02:56:06.736Z,17.89
2018-04-10T02:57:06.719Z,17.89
2018-04-10T02:58:06.893Z,17.89
2018-04-10T02:59:06.736Z,17.89
2018-04-10T03:00:06.692Z,17.91
2018-04-10T03:01:06.733Z,17.88
2018-04-10T03:02:06.695Z,17.89
2018-04-10T03:03:06.738Z,17.91
2018-04-10T03:04:06.740Z,17.88
2018-04-10T03:05:06.723Z,17.88
2018-04-10T03:06:06.750Z,17.88
2018-04-10T03:07:06.694Z,17.88
2018-04-10T03:08:06.725Z,17.88
2018-04-10T03:09:06.687Z,17.89
2018-04-10T03:10:06.821Z,17.88
2018-04-10T03:11:06.802Z,17.89
2018-04-10T03:12:06.746Z,17.88
2018-04-10T03:13:06.713Z,17.88
2018-04-10T03:14:06.796Z,17.88
2018-04-10T03:15:06.703Z,17.93
2018-04-10T03:16:06.714Z,17.88
2018-04-10T03:17:06.687Z,17.88
2018-04-10T03:18:06.715Z,17.87
2018-04-10T03:19:06.737Z,17.85
2018-04-10T03:20:06.744Z,17.87
2018-04-10T03:21:06.723Z,17.88
2018-04-10T03:22:06.757Z,17.85
2018-04-10T03:23:06.688Z,17.88
2018-04-10T03:24:06.749Z,17.91
2018-04-10T03:25:06.702Z,17.87
2018-04-10T03:26:06.722Z,17.87
2018-04-10T03:27:06.713Z,17.87
2018-04-10T03:28:06.738Z,17.85
2018-04-10T03:29:06.910Z,17.87
2018-04-10T03:30:06.762Z,17.87
2018-04-10T03:31:06.704Z,17.87
2018-04-10T03:32:06.868Z,17.88
2018-04-10T03:33:06.710Z,17.88
2018-04-10T03:34:06.713Z,17.85
2018-04-10T03:35:06.714Z,17.84
2018-04-10T03:36:06.688Z,17.87
2018-04-10T03:37:06.711Z,17.85
2018-04-10T03:38:06.706Z,17.89
2018-04-10T03:39:06.704Z,17.88
2018-04-10T03:40:06.678Z,17.87
2018-04-10T03:41:06.717Z,17.88
2018-04-10T03:42:06.727Z,17.88
2018-04-10T03:43:06.864Z,17.87
2018-04-10T03:44:06.856Z,17.85
2018-04-10T03:45:06.721Z,17.85
2018-04-10T03:46:06.743Z,17.85
2018-04-10T03:47:06.736Z,17.85
2018-04-10T03:48:06.785Z,17.85
2018-04-10T03:49:06.750Z,17.88
2018-04-10T03:50:06.689Z,17.87
2018-04-10T03:51:06.680Z,17.87
2018-04-10T03:52:06.688Z,17.88
2018-04-10T03:53:06.674Z,17.89
2018-04-10T03:54:06.763Z,17.89
2018-04-10T03:55:06.699Z,17.87
2018-04-10T03:56:06.728Z,17.85
2018-04-10T03:57:06.752Z,17.87
2018-04-10T03:58:06.701Z,17.88
2018-04-10T03:59:06.832Z,17.88
2018-04-10T04:00:06.713Z,17.88
2018-04-10T04:01:06.755Z,17.91
2018-04-10T04:02:06.765Z,17.91
2018-04-10T04:03:06.720Z,17.88
2018-04-10T04:04:06.716Z,17.93
2018-04-10T04:05:06.682Z,17.97
2018-04-10T04:06:06.685Z,17.97
2018-04-10T04:07:06.709Z,18
2018-04-10T04:08:06.701Z,17.98
2018-04-10T04:09:06.715Z,17.98
2018-04-10T04:10:06.697Z,18.02
2018-04-10T04:11:06.684Z,18.04
2018-04-10T04:12:06.702Z,18.02
2018-04-10T04:13:06.725Z,18.08
2018-04-10T04:14:06.693Z,18.08
2018-04-10T04:15:06.723Z,18.09
2018-04-10T04:16:07.017Z,18.12
2018-04-10T04:17:06.689Z,18.12
2018-04-10T04:18:06.705Z,18.13
2018-04-10T04:19:07.003Z,18.19
2018-04-10T04:20:06.750Z,18.19
2018-04-10T04:21:06.701Z,18.18
2018-04-10T04:22:06.716Z,18.23
2018-04-10T04:23:06.729Z,18.22
2018-04-10T04:24:06.698Z,18.22
2018-04-10T04:25:06.929Z,18.26
2018-04-10T04:26:06.955Z,18.26
2018-04-10T04:27:06.691Z,18.23
2018-04-10T04:28:06.695Z,18.3
2018-04-10T04:29:06.740Z,18.28
2018-04-10T04:30:06.708Z,18.28
2018-04-10T04:31:06.869Z,18.3
2018-04-10T04:32:06.738Z,18.29
2018-04-10T04:33:06.695Z,18.29
2018-04-10T04:34:06.703Z,18.35
2018-04-10T04:35:06.829Z,18.32
2018-04-10T04:36:06.704Z,18.33
2018-04-10T04:37:06.823Z,18.37
2018-04-10T04:38:06.718Z,18.37
2018-04-10T04:39:06.715Z,18.36
2018-04-10T04:40:06.690Z,18.37
2018-04-10T04:41:06.675Z,18.39
2018-04-10T04:42:06.684Z,18.39
2018-04-10T04:43:06.828Z,18.4
2018-04-10T04:44:06.761Z,18.4
2018-04-10T04:45:06.681Z,18.4
2018-04-10T04:46:06.719Z,18.43
2018-04-10T04:47:06.746Z,18.41
2018-04-10T04:48:06.656Z,18.41
2018-04-10T04:49:06.783Z,18.44
2018-04-10T04:50:06.683Z,18.44
2018-04-10T04:51:06.731Z,18.41
2018-04-10T04:52:06.873Z,18.47
2018-04-10T04:53:06.743Z,18.41
2018-04-10T04:54:06.689Z,18.43
2018-04-10T04:55:06.677Z,18.46
2018-04-10T04:56:06.710Z,18.46
2018-04-10T04:57:06.693Z,18.44
2018-04-10T04:58:06.733Z,18.47
2018-04-10T04:59:06.676Z,18.44
2018-04-10T05:00:06.697Z,18.44
2018-04-10T05:01:06.711Z,18.49
2018-04-10T05:02:06.688Z,18.46
2018-04-10T05:03:06.675Z,18.44
2018-04-10T05:04:06.666Z,18.47
2018-04-10T05:05:06.685Z,18.49
2018-04-10T05:06:06.730Z,18.44
2018-04-10T05:07:06.775Z,18.46
2018-04-10T05:08:06.701Z,18.49
2018-04-10T05:09:06.700Z,18.46
2018-04-10T05:10:06.669Z,18.51
2018-04-10T05:11:06.766Z,18.47
2018-04-10T05:12:06.818Z,18.46
2018-04-10T05:13:06.743Z,18.5
2018-04-10T05:14:06.705Z,18.49
2018-04-10T05:15:06.680Z,18.49
2018-04-10T05:16:06.738Z,18.49
2018-04-10T05:17:06.761Z,18.49
2018-04-10T05:18:06.687Z,18.5
2018-04-10T05:19:06.681Z,18.47
2018-04-10T05:20:06.705Z,18.51
2018-04-10T05:21:06.665Z,18.49
2018-04-10T05:22:06.774Z,18.5
2018-04-10T05:23:06.656Z,18.5
2018-04-10T05:24:06.698Z,18.5
2018-04-10T05:25:06.673Z,18.49
2018-04-10T05:26:06.717Z,18.47
2018-04-10T05:27:06.824Z,18.49
2018-04-10T05:28:06.654Z,18.49
2018-04-10T05:29:06.664Z,18.47
2018-04-10T05:30:06.660Z,18.46
2018-04-10T05:31:06.677Z,18.47
2018-04-10T05:32:06.657Z,18.49
2018-04-10T05:33:06.661Z,18.47
2018-04-10T05:34:06.698Z,18.5
2018-04-10T05:35:06.705Z,18.47
2018-04-10T05:36:06.672Z,18.49
2018-04-10T05:37:06.710Z,18.49
2018-04-10T05:38:06.704Z,18.47
2018-04-10T05:39:06.765Z,18.49
2018-04-10T05:40:06.771Z,18.46
2018-04-10T05:41:06.683Z,18.46
2018-04-10T05:42:06.689Z,18.47
2018-04-10T05:43:06.692Z,18.49
2018-04-10T05:44:06.697Z,18.49
2018-04-10T05:45:06.640Z,18.47
2018-04-10T05:46:06.670Z,18.47
2018-04-10T05:47:06.961Z,18.46
2018-04-10T05:48:06.963Z,18.46
2018-04-10T05:49:06.772Z,18.57
2018-04-10T05:50:06.674Z,18.56
2018-04-10T05:51:06.635Z,18.51
2018-04-10T05:52:06.732Z,18.51
2018-04-10T05:53:06.970Z,18.5
2018-04-10T05:54:06.648Z,18.49
2018-04-10T05:55:06.727Z,18.47
2018-04-10T05:56:06.735Z,18.47
2018-04-10T05:57:06.746Z,18.49
2018-04-10T05:58:06.775Z,18.47
2018-04-10T05:59:07.211Z,18.46
2018-04-10T06:00:09.511Z,18.47
2018-04-10T06:01:06.738Z,18.47
2018-04-10T06:02:09.394Z,18.47
2018-04-10T06:03:09.162Z,18.47
2018-04-10T06:04:06.712Z,18.47
2018-04-10T06:05:07.192Z,18.46
2018-04-10T06:06:09.191Z,18.44
2018-04-10T06:07:06.748Z,18.46
2018-04-10T06:08:06.730Z,18.44
2018-04-10T06:09:09.132Z,18.46
2018-04-10T06:10:06.754Z,18.44
2018-04-10T06:11:06.714Z,18.46
2018-04-10T06:12:09.141Z,18.46
2018-04-10T06:13:06.650Z,18.43
2018-04-10T06:14:06.857Z,18.44
2018-04-10T06:15:06.691Z,18.46
2018-04-10T06:16:06.647Z,18.44
2018-04-10T06:17:06.657Z,18.44
2018-04-10T06:18:06.660Z,18.43
2018-04-10T06:19:06.652Z,18.43
2018-04-10T06:20:06.645Z,18.43
2018-04-10T06:21:06.686Z,18.43
2018-04-10T06:22:06.667Z,18.41
2018-04-10T06:23:06.666Z,18.41
2018-04-10T06:24:06.725Z,18.43
2018-04-10T06:25:06.643Z,18.4
2018-04-10T06:26:06.626Z,18.41
2018-04-10T06:27:06.676Z,18.41
2018-04-10T06:28:06.725Z,18.41
2018-04-10T06:29:06.750Z,18.4
2018-04-10T06:30:06.659Z,18.41
2018-04-10T06:31:06.616Z,18.41
2018-04-10T06:32:06.655Z,18.41
2018-04-10T06:33:06.654Z,18.4
2018-04-10T06:34:06.680Z,18.39
2018-04-10T06:35:06.650Z,18.37
2018-04-10T06:36:06.701Z,18.37
2018-04-10T06:37:06.892Z,18.39
2018-04-10T06:38:06.641Z,18.4
2018-04-10T06:39:06.662Z,18.39
2018-04-10T06:40:06.627Z,18.37
2018-04-10T06:41:06.735Z,18.39
2018-04-10T06:42:06.685Z,18.39
2018-04-10T06:43:06.775Z,18.56
2018-04-10T06:44:06.647Z,18.5
2018-04-10T06:45:06.933Z,18.49
2018-04-10T06:46:06.705Z,18.49
2018-04-10T06:47:06.663Z,18.49
2018-04-10T06:48:06.686Z,18.47
2018-04-10T06:49:06.666Z,18.5
2018-04-10T06:50:06.769Z,18.49
2018-04-10T06:51:06.654Z,18.49
2018-04-10T06:52:06.639Z,18.51
2018-04-10T06:53:06.665Z,18.51
2018-04-10T06:54:06.697Z,18.51
2018-04-10T06:55:06.689Z,18.51
2018-04-10T06:56:06.635Z,18.53
2018-04-10T06:57:06.649Z,18.54
2018-04-10T06:58:06.699Z,18.56
2018-04-10T06:59:06.698Z,18.54
2018-04-10T07:00:06.700Z,18.53
2018-04-10T07:01:06.707Z,18.57
2018-04-10T07:02:06.657Z,18.58
2018-04-10T07:03:06.636Z,18.58
2018-04-10T07:04:06.872Z,18.58
2018-04-10T07:05:06.637Z,18.58
2018-04-10T07:06:06.653Z,18.6
2018-04-10T07:07:06.681Z,18.62
2018-04-10T07:08:06.662Z,18.58
2018-04-10T07:09:06.650Z,18.62
2018-04-10T07:10:06.651Z,18.63
2018-04-10T07:11:06.624Z,18.64
2018-04-10T07:12:06.786Z,18.6
2018-04-10T07:13:06.769Z,18.63
2018-04-10T07:14:06.681Z,18.64
2018-04-10T07:15:06.625Z,18.63
2018-04-10T07:16:06.661Z,18.66
2018-04-10T07:17:06.635Z,18.63
2018-04-10T07:18:06.656Z,18.62
2018-04-10T07:19:06.663Z,18.67
2018-04-10T07:20:06.691Z,18.64
2018-04-10T07:21:06.621Z,18.64
2018-04-10T07:22:06.637Z,18.67
2018-04-10T07:23:06.627Z,18.64
2018-04-10T07:24:06.883Z,18.66
2018-04-10T07:25:06.616Z,18.64
2018-04-10T07:26:07.064Z,18.66
2018-04-10T07:27:06.644Z,18.63
2018-04-10T07:28:06.909Z,18.66
2018-04-10T07:29:06.877Z,18.66
2018-04-10T07:30:06.641Z,18.64
2018-04-10T07:31:06.640Z,18.66
2018-04-10T07:32:06.867Z,18.6
2018-04-10T07:33:06.639Z,18.6
2018-04-10T07:34:06.974Z,18.62
2018-04-10T07:35:06.903Z,18.62
2018-04-10T07:36:06.725Z,18.62
2018-04-10T07:37:06.651Z,18.66
2018-04-10T07:38:06.606Z,18.66
2018-04-10T07:39:06.650Z,18.64
2018-04-10T07:40:06.696Z,18.64
2018-04-10T07:41:06.660Z,18.66
2018-04-10T07:42:06.628Z,18.64
2018-04-10T07:43:06.672Z,18.66
2018-04-10T07:44:06.678Z,18.67
2018-04-10T07:45:06.777Z,18.66
2018-04-10T07:46:06.923Z,18.67
2018-04-10T07:47:06.678Z,18.67
2018-04-10T07:48:07.021Z,18.67
2018-04-10T07:49:06.666Z,18.68
2018-04-10T07:50:06.613Z,18.68
2018-04-10T07:51:06.684Z,18.66
2018-04-10T07:52:06.597Z,18.7
2018-04-10T07:53:06.597Z,18.7
2018-04-10T07:54:06.631Z,18.77
2018-04-10T07:55:06.572Z,18.8
2018-04-10T07:56:06.689Z,18.73
2018-04-10T07:57:06.653Z,18.7
2018-04-10T07:58:06.687Z,18.71
2018-04-10T07:59:06.613Z,18.68
2018-04-10T08:00:06.695Z,18.67
2018-04-10T08:01:06.664Z,18.7
2018-04-10T08:02:06.591Z,18.64
2018-04-10T08:03:06.652Z,18.63
2018-04-10T08:04:06.630Z,18.68
2018-04-10T08:05:06.762Z,18.66
2018-04-10T08:06:06.631Z,18.64
2018-04-10T08:07:06.612Z,18.66
2018-04-10T08:08:06.616Z,18.63
2018-04-10T08:09:06.623Z,18.63
2018-04-10T08:10:06.606Z,18.66
2018-04-10T08:11:06.659Z,18.63
2018-04-10T08:12:06.631Z,18.6
2018-04-10T08:13:06.635Z,18.6
2018-04-10T08:14:06.620Z,18.62
2018-04-10T08:15:06.608Z,18.62
2018-04-10T08:16:06.684Z,18.6
2018-04-10T08:17:06.605Z,18.62
2018-04-10T08:18:06.615Z,18.58
2018-04-10T08:19:06.640Z,18.6
2018-04-10T08:20:06.615Z,18.62
2018-04-10T08:21:06.751Z,18.56
2018-04-10T08:22:06.626Z,18.62
2018-04-10T08:23:06.587Z,18.58
2018-04-10T08:24:06.705Z,18.57
2018-04-10T08:25:06.589Z,18.58
2018-04-10T08:26:06.638Z,18.58
2018-04-10T08:27:06.617Z,18.57
2018-04-10T08:28:06.631Z,18.62
2018-04-10T08:29:06.591Z,18.62
2018-04-10T08:30:06.617Z,18.6
2018-04-10T08:31:06.628Z,18.62
2018-04-10T08:32:06.620Z,18.6
2018-04-10T08:33:06.659Z,18.64
2018-04-10T08:34:06.585Z,18.66
2018-04-10T08:35:06.683Z,18.64
2018-04-10T08:36:06.617Z,18.64
2018-04-10T08:37:06.589Z,18.67
2018-04-10T08:38:06.599Z,18.64
2018-04-10T08:39:06.795Z,18.64
2018-04-10T08:40:06.581Z,18.66
2018-04-10T08:41:06.609Z,18.64
2018-04-10T08:42:06.689Z,18.62
2018-04-10T08:43:06.582Z,18.63
2018-04-10T08:44:06.636Z,18.64
2018-04-10T08:45:07.132Z,18.67
2018-04-10T08:46:06.640Z,18.68
2018-04-10T08:47:06.629Z,18.63
2018-04-10T08:48:06.564Z,18.63
2018-04-10T08:49:06.644Z,18.66
2018-04-10T08:50:06.640Z,18.66
2018-04-10T08:51:06.661Z,18.66
2018-04-10T08:52:06.631Z,18.68
2018-04-10T08:53:06.626Z,18.68
2018-04-10T08:54:06.857Z,18.68
2018-04-10T08:55:06.607Z,18.67
2018-04-10T08:56:06.709Z,18.66
2018-04-10T08:57:06.614Z,18.66
2018-04-10T08:58:07.101Z,18.66
2018-04-10T08:59:06.757Z,18.67
2018-04-10T09:00:06.621Z,18.66
2018-04-10T09:01:06.585Z,18.66
2018-04-10T09:02:06.727Z,18.67
2018-04-10T09:03:06.627Z,18.67
2018-04-10T09:04:06.629Z,18.68
2018-04-10T09:05:06.620Z,18.67
2018-04-10T09:06:06.705Z,18.66
2018-04-10T09:07:06.626Z,18.7
2018-04-10T09:08:06.612Z,18.67
2018-04-10T09:09:06.753Z,18.67
2018-04-10T09:10:06.606Z,18.71
2018-04-10T09:11:06.629Z,18.68
2018-04-10T09:12:06.630Z,18.68
2018-04-10T09:13:06.711Z,18.7
2018-04-10T09:14:06.711Z,18.68
2018-04-10T09:15:06.574Z,18.67
2018-04-10T09:16:06.614Z,18.71
2018-04-10T09:17:06.616Z,18.68
2018-04-10T09:18:06.611Z,18.71
2018-04-10T09:19:06.651Z,18.71
2018-04-10T09:20:06.580Z,18.71
2018-04-10T09:21:06.569Z,18.68
2018-04-10T09:22:06.692Z,18.68
2018-04-10T09:23:06.598Z,18.66
2018-04-10T09:24:06.610Z,18.67
2018-04-10T09:25:06.652Z,18.67
2018-04-10T09:26:06.600Z,18.66
2018-04-10T09:27:06.620Z,18.64
2018-04-10T09:28:06.701Z,18.66
2018-04-10T09:29:06.908Z,18.64
2018-04-10T09:30:06.579Z,18.66
2018-04-10T09:31:06.602Z,18.66
2018-04-10T09:32:06.638Z,18.66
2018-04-10T09:33:06.728Z,18.63
2018-04-10T09:34:06.605Z,18.64
2018-04-10T09:35:06.571Z,18.64
2018-04-10T09:36:06.572Z,18.62
2018-04-10T09:37:06.726Z,18.64
2018-04-10T09:38:06.605Z,18.62
2018-04-10T09:39:06.599Z,18.6
2018-04-10T09:40:06.569Z,18.62
2018-04-10T09:41:06.567Z,18.62
2018-04-10T09:42:06.582Z,18.6
2018-04-10T09:43:06.636Z,18.6
2018-04-10T09:44:06.620Z,18.62
2018-04-10T09:45:06.585Z,18.58
2018-04-10T09:46:06.573Z,18.6
2018-04-10T09:47:06.591Z,18.62
2018-04-10T09:48:06.576Z,18.58
2018-04-10T09:49:06.576Z,18.56
2018-04-10T09:50:06.589Z,18.56
2018-04-10T09:51:06.638Z,18.54
2018-04-10T09:52:06.597Z,18.51
2018-04-10T09:53:06.647Z,18.53
2018-04-10T09:54:06.587Z,18.51
2018-04-10T09:55:06.636Z,18.47
2018-04-10T09:56:06.617Z,18.49
2018-04-10T09:57:06.661Z,18.5
2018-04-10T09:58:06.618Z,18.46
2018-04-10T09:59:06.695Z,18.46
2018-04-10T10:00:06.565Z,18.46
2018-04-10T10:01:06.650Z,18.43
2018-04-10T10:02:06.616Z,18.44
2018-04-10T10:03:06.612Z,18.44
2018-04-10T10:04:06.552Z,18.44
2018-04-10T10:05:06.609Z,18.44
2018-04-10T10:06:06.591Z,18.44
2018-04-10T10:07:06.549Z,18.41
2018-04-10T10:08:06.652Z,18.41
2018-04-10T10:09:06.622Z,18.44
2018-04-10T10:10:06.572Z,18.41
2018-04-10T10:11:06.693Z,18.43
2018-04-10T10:12:06.624Z,18.43
2018-04-10T10:13:06.617Z,18.43
2018-04-10T10:14:06.602Z,18.4
2018-04-10T10:15:06.574Z,18.43
2018-04-10T10:16:06.619Z,18.44
2018-04-10T10:17:06.641Z,18.44
2018-04-10T10:18:06.618Z,18.46
2018-04-10T10:19:06.607Z,18.51
2018-04-10T10:20:06.611Z,18.5
2018-04-10T10:21:06.572Z,18.5
2018-04-10T10:22:06.580Z,18.54
2018-04-10T10:23:06.601Z,18.51
2018-04-10T10:24:06.561Z,18.53
2018-04-10T10:25:06.609Z,18.56
2018-04-10T10:26:06.596Z,18.57
2018-04-10T10:27:06.630Z,18.56
2018-04-10T10:28:06.593Z,18.58
2018-04-10T10:29:06.573Z,18.58
2018-04-10T10:30:06.593Z,18.58
2018-04-10T10:31:06.620Z,18.62
2018-04-10T10:32:06.762Z,18.62
2018-04-10T10:33:06.581Z,18.57
2018-04-10T10:34:06.592Z,18.6
2018-04-10T10:35:06.544Z,18.58
2018-04-10T10:36:06.608Z,18.56
2018-04-10T10:37:06.540Z,18.58
2018-04-10T10:38:06.786Z,18.6
2018-04-10T10:39:06.832Z,18.58
2018-04-10T10:40:06.661Z,18.62
2018-04-10T10:41:06.578Z,18.62
2018-04-10T10:42:06.603Z,18.6
2018-04-10T10:43:06.789Z,18.63
2018-04-10T10:44:06.619Z,18.62
2018-04-10T10:45:06.602Z,18.6
2018-04-10T10:46:06.611Z,18.64
2018-04-10T10:47:06.850Z,18.62
2018-04-10T10:48:06.665Z,18.62
2018-04-10T10:49:06.568Z,18.66
2018-04-10T10:50:06.585Z,18.67
2018-04-10T10:51:06.573Z,18.68
2018-04-10T10:52:06.557Z,18.68
2018-04-10T10:53:06.573Z,18.67
2018-04-10T10:54:06.582Z,18.66
2018-04-10T10:55:06.659Z,18.67
2018-04-10T10:56:06.555Z,18.67
2018-04-10T10:57:06.541Z,18.67
2018-04-10T10:58:06.992Z,18.67
2018-04-10T10:59:06.572Z,18.64
2018-04-10T11:00:06.540Z,18.67
2018-04-10T11:01:06.869Z,18.67
2018-04-10T11:02:06.582Z,18.66
2018-04-10T11:03:06.744Z,18.66
2018-04-10T11:04:06.597Z,18.66
2018-04-10T11:05:06.598Z,18.66
2018-04-10T11:06:06.553Z,18.66
2018-04-10T11:07:06.574Z,18.64
2018-04-10T11:08:06.620Z,18.64
2018-04-10T11:09:06.571Z,18.64
2018-04-10T11:10:06.738Z,18.66
2018-04-10T11:11:06.674Z,18.62
2018-04-10T11:12:06.635Z,18.62
2018-04-10T11:13:06.702Z,18.62
2018-04-10T11:14:06.664Z,18.62
2018-04-10T11:15:06.656Z,18.62
2018-04-10T11:16:06.658Z,18.63
2018-04-10T11:17:06.556Z,18.62
2018-04-10T11:18:06.611Z,18.58
2018-04-10T11:19:06.557Z,18.63
2018-04-10T11:20:06.595Z,18.62
2018-04-10T11:21:06.565Z,18.58
2018-04-10T11:22:06.565Z,18.6
2018-04-10T11:23:06.562Z,18.6
2018-04-10T11:24:06.535Z,18.57
2018-04-10T11:25:06.558Z,18.6
2018-04-10T11:26:06.557Z,18.62
2018-04-10T11:27:06.595Z,18.58
2018-04-10T11:28:06.537Z,18.53
2018-04-10T11:29:06.515Z,18.54
2018-04-10T11:30:06.549Z,18.53
2018-04-10T11:31:06.528Z,18.5
2018-04-10T11:32:06.576Z,18.5
2018-04-10T11:33:06.587Z,18.51
2018-04-10T11:34:06.546Z,18.46
2018-04-10T11:35:06.585Z,18.47
2018-04-10T11:36:06.576Z,18.5
2018-04-10T11:37:06.516Z,18.43
2018-04-10T11:38:06.750Z,18.47
2018-04-10T11:39:06.797Z,18.49
2018-04-10T11:40:06.547Z,18.53
2018-04-10T11:41:06.525Z,18.56
2018-04-10T11:42:06.550Z,18.56
2018-04-10T11:43:06.870Z,18.57
2018-04-10T11:44:06.550Z,18.56
2018-04-10T11:45:06.594Z,18.57
2018-04-10T11:46:06.543Z,18.57
2018-04-10T11:47:06.577Z,18.58
2018-04-10T11:48:06.570Z,18.56
2018-04-10T11:49:06.556Z,18.58
2018-04-10T11:50:06.511Z,18.6
2018-04-10T11:51:06.540Z,18.6
2018-04-10T11:52:06.605Z,18.63
2018-04-10T11:53:06.569Z,18.63
2018-04-10T11:54:06.590Z,18.6
2018-04-10T11:55:06.539Z,18.71
2018-04-10T11:56:06.533Z,18.67
2018-04-10T11:57:06.571Z,18.66
2018-04-10T11:58:06.514Z,18.64
2018-04-10T11:59:06.556Z,18.62
2018-04-10T12:00:06.540Z,18.64
2018-04-10T12:01:06.617Z,18.66
2018-04-10T12:02:06.601Z,18.64
2018-04-10T12:03:06.565Z,18.63
2018-04-10T12:04:06.595Z,18.66
2018-04-10T12:05:06.571Z,18.66
2018-04-10T12:06:06.550Z,18.64
2018-04-10T12:07:06.555Z,18.64
2018-04-10T12:08:06.518Z,18.62
2018-04-10T12:09:06.530Z,18.66
2018-04-10T12:10:06.591Z,18.68
2018-04-10T12:11:06.533Z,18.64
2018-04-10T12:12:06.524Z,18.66
2018-04-10T12:13:06.539Z,18.7
2018-04-10T12:14:06.552Z,18.7
2018-04-10T12:15:06.721Z,18.66
2018-04-10T12:16:06.865Z,18.7
2018-04-10T12:17:06.532Z,18.7
2018-04-10T12:18:06.515Z,18.7
2018-04-10T12:19:06.541Z,18.75
2018-04-10T12:20:06.572Z,18.75
2018-04-10T12:21:06.574Z,18.73
2018-04-10T12:22:06.532Z,18.71
2018-04-10T12:23:06.548Z,18.7
2018-04-10T12:24:06.510Z,18.68
2018-04-10T12:25:06.558Z,18.71
2018-04-10T12:26:06.563Z,18.67
2018-04-10T12:27:06.562Z,18.67
2018-04-10T12:28:06.519Z,18.67
2018-04-10T12:29:06.631Z,18.66
2018-04-10T12:30:06.583Z,18.67
2018-04-10T12:31:06.524Z,18.66
2018-04-10T12:32:06.560Z,18.66
2018-04-10T12:33:06.515Z,18.64
2018-04-10T12:34:06.538Z,18.63
2018-04-10T12:35:06.534Z,18.64
2018-04-10T12:36:06.485Z,18.62
2018-04-10T12:37:06.536Z,18.63
2018-04-10T12:38:06.508Z,18.63
2018-04-10T12:39:06.539Z,18.63
2018-04-10T12:40:06.540Z,18.63
2018-04-10T12:41:06.518Z,18.58
2018-04-10T12:42:06.532Z,18.62
2018-04-10T12:43:06.938Z,18.62
2018-04-10T12:44:06.533Z,18.6
2018-04-10T12:45:06.648Z,18.58
2018-04-10T12:46:06.538Z,18.6
2018-04-10T12:47:06.638Z,18.57
2018-04-10T12:48:06.542Z,18.57
2018-04-10T12:49:06.549Z,18.53
2018-04-10T12:50:06.582Z,18.53
2018-04-10T12:51:06.550Z,18.53
2018-04-10T12:52:06.531Z,18.5
2018-04-10T12:53:06.533Z,18.53
2018-04-10T12:54:06.580Z,18.54
2018-04-10T12:55:06.587Z,18.57
2018-04-10T12:56:06.529Z,18.56